Waka, Texas
Current Conditions -  °F | °C
As of 8:35 PM on Friday 24 Oct 2014 (Local Time) from KPYX Reporting Station
Clear Clear  
Wind Chill: 65°   Ceiling: Unl
Heat Index: 65°   Visibility: 10mi
Dew Point: 47°   Wind: 8mph
Humidity: 52%   Direction: 150°SSE
Pressure: 30.08"   Gusts: NA
Location:  36.28°N, 101.05°W
Report Text: KPYX 250135Z AUTO 15007KT 10SM CLR 18/08 A3008 RMK AO2 T01830083
Loading
Personal Weather Stations






























Interactive Weather Map
Tropical Storm Tracking
New forecast layout! Learn more

10-Day Weather Forecast

Advertisements
Track Severe Weather on mobile